map of OMR home
OMR - Airport
Location
City:  Oradea, Bihor, Romania
ICAO:LROD
IATA:OMR

Details
Type:Airport (Aerodrome, Airfield)
Use:Public/Civil
Latitude:4701'31"N (47.025278)
Longitude:2154'09"E (21.902500)
Datum:WGS 1984
Elevation:465 ft (142 m)
Variation:5.50E (WMM2015v2 magnetic declination)
0.14 annual change
Runways:1
Longest:5906 × 98 ft (1800 × 30 m), paved

Time
Time Zone:UTC+2 (DST+3)
Local Time:

Weather
METAR:LROD 041400Z 29004KT 250V310 9999 SCT016 BKN019 05/02 Q1027

Related Locations
Nearby:
Farthest:CHT: 11522 mi / 18542 km
Waitangi [Tuuta], CIT, NZ

Find:

   beyond  
but within

Other Information
Maps:
NOTAMs:
Links:
Sources:

  
  • flag of Romania
  

Sectional Chart

Flight Planning
at skyvector.com

Satellite Image

Google Maps Satellite view

 

Copyright © 2004-2019 Karl L. Swartz. All rights reserved.
The Great Circle Mapper name and logo are trademarks of the Great Circle Mapper.
All other trademarks mentioned herein belong to their respective owners.
Please see credits for attibutions and further copyright information.

  Follow gcmap on Facebook Follow gcmap on Twitter GCmap on LinkedIn

hCard Microformat

Geo Microformat